Woodruff, Idaho
Current Conditions -  °F | °C
As of 4:51 PM on Wednesday 26 Nov 2014 (Local Time) from KLGU Reporting Station
Clear Clear  
Wind Chill: 51°   Ceiling: Unl
Heat Index: 51°   Visibility: 10mi
Dew Point: 31°   Wind: 0mph
Humidity: 46%   Direction: NA
Pressure: 30.34"   Gusts: NA
Location:  42.2285°N, 112.313°W
Report Text: KLGU 262351Z AUTO 00000KT 10SM CLR 11/M01 A3034 RMK AO2 SLP261 T01061006 10139 20106 51001
Loading
Personal Weather Stations






























Interactive Weather Map New forecast layout! Learn more

10-Day Weather Forecast

Advertisements
Track Severe Weather on mobile